sensor_id;sensor_type;location;lat;lon;timestamp;pressure;altitude;pressure_sealevel;temperature;humidity
48778;BME280;34578;0.000;0.000;2023-02-04T00:01:00;98088.78;;;16.79;55.43
48778;BME280;34578;0.000;0.000;2023-02-04T00:06:00;98093.00;;;16.78;55.42
48778;BME280;34578;0.000;0.000;2023-02-04T00:11:00;98095.50;;;16.77;55.56
48778;BME280;34578;0.000;0.000;2023-02-04T00:16:03;98088.91;;;16.82;56.29
48778;BME280;34578;0.000;0.000;2023-02-04T00:21:04;98084.69;;;16.82;56.67
48778;BME280;34578;0.000;0.000;2023-02-04T00:26:04;98094.03;;;16.85;56.25
48778;BME280;34578;0.000;0.000;2023-02-04T00:31:05;98083.72;;;16.79;55.60
48778;BME280;34578;0.000;0.000;2023-02-04T00:36:06;98080.31;;;16.77;55.74
48778;BME280;34578;0.000;0.000;2023-02-04T00:41:07;98083.66;;;16.76;55.63
48778;BME280;34578;0.000;0.000;2023-02-04T00:46:07;98065.97;;;16.76;55.21
48778;BME280;34578;0.000;0.000;2023-02-04T00:51:08;98061.72;;;16.75;55.89
48778;BME280;34578;0.000;0.000;2023-02-04T00:56:08;98052.41;;;16.74;55.61
48778;BME280;34578;0.000;0.000;2023-02-04T01:01:08;98059.19;;;16.75;55.37
48778;BME280;34578;0.000;0.000;2023-02-04T01:06:09;98059.19;;;16.75;55.83
48778;BME280;34578;0.000;0.000;2023-02-04T01:11:10;98061.72;;;16.75;55.29
48778;BME280;34578;0.000;0.000;2023-02-04T01:16:11;98073.47;;;16.73;55.52
48778;BME280;34578;0.000;0.000;2023-02-04T01:21:12;98077.72;;;16.74;55.52
48778;BME280;34578;0.000;0.000;2023-02-04T01:26:12;98070.00;;;16.71;55.71
48778;BME280;34578;0.000;0.000;2023-02-04T01:31:12;98064.97;;;16.71;56.10
48778;BME280;34578;0.000;0.000;2023-02-04T01:36:14;98079.56;;;16.79;56.73
48778;BME280;34578;0.000;0.000;2023-02-04T01:41:20;98080.38;;;16.80;56.65
48778;BME280;34578;0.000;0.000;2023-02-04T01:46:21;98075.25;;;16.77;55.72
48778;BME280;34578;0.000;0.000;2023-02-04T01:51:25;98081.88;;;16.72;56.13
48778;BME280;34578;0.000;0.000;2023-02-04T01:56:29;98084.34;;;16.71;56.17
48778;BME280;34578;0.000;0.000;2023-02-04T02:01:41;98082.63;;;16.70;55.90
48778;BME280;34578;0.000;0.000;2023-02-04T02:06:45;98075.00;;;16.68;55.93
48778;BME280;34578;0.000;0.000;2023-02-04T02:11:47;98065.69;;;16.67;55.97
48778;BME280;34578;0.000;0.000;2023-02-04T02:16:47;98065.69;;;16.67;55.96
48778;BME280;34578;0.000;0.000;2023-02-04T02:21:54;98056.31;;;16.63;55.81
48778;BME280;34578;0.000;0.000;2023-02-04T02:26:59;98062.28;;;16.65;56.41
48778;BME280;34578;0.000;0.000;2023-02-04T02:32:01;98053.06;;;16.67;55.75
48778;BME280;34578;0.000;0.000;2023-02-04T02:37:02;98044.66;;;16.68;55.28
48778;BME280;34578;0.000;0.000;2023-02-04T02:42:02;98047.31;;;16.73;55.22
48778;BME280;34578;0.000;0.000;2023-02-04T02:47:03;98043.94;;;16.72;54.68
48778;BME280;34578;0.000;0.000;2023-02-04T02:52:04;98033.09;;;16.76;55.96
48778;BME280;34578;0.000;0.000;2023-02-04T02:57:14;98033.97;;;16.78;56.37
48778;BME280;34578;0.000;0.000;2023-02-04T03:02:17;98044.91;;;16.77;55.44
48778;BME280;34578;0.000;0.000;2023-02-04T03:07:21;98053.25;;;16.73;55.75
48778;BME280;34578;0.000;0.000;2023-02-04T03:12:22;98048.06;;;16.70;56.05
48778;BME280;34578;0.000;0.000;2023-02-04T03:17:23;98043.75;;;16.66;56.04
48778;BME280;34578;0.000;0.000;2023-02-04T03:22:23;98057.31;;;16.68;55.75
48778;BME280;34578;0.000;0.000;2023-02-04T03:27:24;98054.81;;;16.70;55.95
48778;BME280;34578;0.000;0.000;2023-02-04T03:32:24;98057.34;;;16.70;55.51
48778;BME280;34578;0.000;0.000;2023-02-04T03:37:25;98061.47;;;16.67;55.26
48778;BME280;34578;0.000;0.000;2023-02-04T03:42:25;98059.81;;;16.68;55.52
48778;BME280;34578;0.000;0.000;2023-02-04T03:47:25;98047.25;;;16.70;55.23
48778;BME280;34578;0.000;0.000;2023-02-04T03:52:25;98042.13;;;16.68;55.13
48778;BME280;34578;0.000;0.000;2023-02-04T03:57:26;98053.91;;;16.67;55.05
48778;BME280;34578;0.000;0.000;2023-02-04T04:02:26;98049.75;;;16.70;54.84
48778;BME280;34578;0.000;0.000;2023-02-04T04:07:26;98060.03;;;16.75;55.26
48778;BME280;34578;0.000;0.000;2023-02-04T04:12:27;98054.13;;;16.75;56.46
48778;BME280;34578;0.000;0.000;2023-02-04T04:17:27;98064.25;;;16.75;55.83
48778;BME280;34578;0.000;0.000;2023-02-04T04:22:27;98072.66;;;16.74;55.50
48778;BME280;34578;0.000;0.000;2023-02-04T04:27:28;98063.25;;;16.70;55.32
48778;BME280;34578;0.000;0.000;2023-02-04T04:32:29;98058.97;;;16.67;55.50
48778;BME280;34578;0.000;0.000;2023-02-04T04:37:29;98059.81;;;16.68;55.36
48778;BME280;34578;0.000;0.000;2023-02-04T04:42:30;98066.53;;;16.66;55.27
48778;BME280;34578;0.000;0.000;2023-02-04T04:47:30;98074.13;;;16.67;55.38
48778;BME280;34578;0.000;0.000;2023-02-04T04:52:30;98069.94;;;16.68;55.26
48778;BME280;34578;0.000;0.000;2023-02-04T04:57:31;98069.19;;;16.71;54.95
48778;BME280;34578;0.000;0.000;2023-02-04T05:02:31;98059.88;;;16.70;54.93
48778;BME280;34578;0.000;0.000;2023-02-04T05:07:31;98060.72;;;16.70;54.96
48778;BME280;34578;0.000;0.000;2023-02-04T05:12:34;98070.81;;;16.69;55.02
48778;BME280;34578;0.000;0.000;2023-02-04T05:17:34;98066.59;;;16.69;54.76
48778;BME280;34578;0.000;0.000;2023-02-04T05:22:35;98062.34;;;16.68;55.04
48778;BME280;34578;0.000;0.000;2023-02-04T05:27:35;98070.13;;;16.74;56.01
48778;BME280;34578;0.000;0.000;2023-02-04T05:32:36;98071.84;;;16.75;56.24
48778;BME280;34578;0.000;0.000;2023-02-04T05:37:37;98076.91;;;16.75;54.70
48778;BME280;34578;0.000;0.000;2023-02-04T05:42:37;98079.28;;;16.71;55.11
48778;BME280;34578;0.000;0.000;2023-02-04T05:47:37;98081.00;;;16.72;55.00
48778;BME280;34578;0.000;0.000;2023-02-04T05:52:38;98068.41;;;16.73;54.52
48778;BME280;34578;0.000;0.000;2023-02-04T05:57:39;98071.78;;;16.73;54.63
48778;BME280;34578;0.000;0.000;2023-02-04T06:02:39;98069.13;;;16.69;54.21
48778;BME280;34578;0.000;0.000;2023-02-04T06:07:40;98081.88;;;16.72;54.38
48778;BME280;34578;0.000;0.000;2023-02-04T06:12:40;98084.44;;;16.73;54.21
48778;BME280;34578;0.000;0.000;2023-02-04T06:17:41;98080.31;;;16.77;54.16
48778;BME280;34578;0.000;0.000;2023-02-04T06:22:41;98104.06;;;16.82;54.08
48778;BME280;34578;0.000;0.000;2023-02-04T06:27:41;98096.63;;;16.86;52.87
48778;BME280;34578;0.000;0.000;2023-02-04T06:32:42;98106.72;;;16.86;53.29
48778;BME280;34578;0.000;0.000;2023-02-04T06:37:43;98106.75;;;16.88;53.99
48778;BME280;34578;0.000;0.000;2023-02-04T06:42:43;98107.56;;;16.87;55.52
48778;BME280;34578;0.000;0.000;2023-02-04T06:47:43;98102.44;;;16.84;56.10
48778;BME280;34578;0.000;0.000;2023-02-04T06:52:47;98119.38;;;16.86;55.03
48778;BME280;34578;0.000;0.000;2023-02-04T06:57:47;98119.41;;;16.88;52.69
48778;BME280;34578;0.000;0.000;2023-02-04T07:02:48;98131.16;;;16.86;53.24
48778;BME280;34578;0.000;0.000;2023-02-04T07:07:48;98131.09;;;16.83;53.95
48778;BME280;34578;0.000;0.000;2023-02-04T07:12:48;98135.47;;;16.88;52.95
48778;BME280;34578;0.000;0.000;2023-02-04T07:17:49;98132.09;;;16.89;52.58
48778;BME280;34578;0.000;0.000;2023-02-04T07:22:49;98139.69;;;16.89;52.73
48778;BME280;34578;0.000;0.000;2023-02-04T07:27:49;98145.66;;;16.91;53.24
48778;BME280;34578;0.000;0.000;2023-02-04T07:32:50;98149.94;;;16.94;53.05
48778;BME280;34578;0.000;0.000;2023-02-04T07:37:50;98143.16;;;16.93;52.68
48778;BME280;34578;0.000;0.000;2023-02-04T07:42:50;98153.22;;;16.90;53.66
48778;BME280;34578;0.000;0.000;2023-02-04T07:47:52;98152.41;;;16.91;52.83
48778;BME280;34578;0.000;0.000;2023-02-04T07:52:52;98154.94;;;16.92;51.32
48778;BME280;34578;0.000;0.000;2023-02-04T07:57:53;98161.59;;;16.61;53.39
48778;BME280;34578;0.000;0.000;2023-02-04T08:02:53;98164.59;;;16.76;55.12
48778;BME280;34578;0.000;0.000;2023-02-04T08:07:53;98171.44;;;16.80;54.66
48778;BME280;34578;0.000;0.000;2023-02-04T08:12:54;98175.75;;;16.82;53.86
48778;BME280;34578;0.000;0.000;2023-02-04T08:17:54;98184.06;;;16.78;51.97
48778;BME280;34578;0.000;0.000;2023-02-04T08:22:55;98176.81;;;16.89;53.14
48778;BME280;34578;0.000;0.000;2023-02-04T08:27:55;98171.75;;;16.89;53.55
48778;BME280;34578;0.000;0.000;2023-02-04T08:32:56;98182.66;;;16.88;53.04
48778;BME280;34578;0.000;0.000;2023-02-04T08:37:56;98183.56;;;16.90;52.86
48778;BME280;34578;0.000;0.000;2023-02-04T08:42:56;98181.66;;;16.83;51.17
48778;BME280;34578;0.000;0.000;2023-02-04T08:47:57;98185.91;;;16.84;53.15
48778;BME280;34578;0.000;0.000;2023-02-04T08:52:57;98198.50;;;16.82;53.37
48778;BME280;34578;0.000;0.000;2023-02-04T08:57:57;98199.25;;;16.80;52.92
48778;BME280;34578;0.000;0.000;2023-02-04T09:02:58;98194.41;;;16.86;51.88
48778;BME280;34578;0.000;0.000;2023-02-04T09:07:58;98195.13;;;16.82;52.33
48778;BME280;34578;0.000;0.000;2023-02-04T09:12:59;98212.03;;;16.83;53.59
48778;BME280;34578;0.000;0.000;2023-02-04T09:17:59;98213.66;;;16.81;55.12
48778;BME280;34578;0.000;0.000;2023-02-04T09:23:11;98223.03;;;16.85;55.59
48778;BME280;34578;0.000;0.000;2023-02-04T09:28:14;98218.06;;;16.88;54.43
48778;BME280;34578;0.000;0.000;2023-02-04T09:33:16;98218.94;;;16.88;53.59
48778;BME280;34578;0.000;0.000;2023-02-04T09:38:16;98229.06;;;16.88;54.34
48778;BME280;34578;0.000;0.000;2023-02-04T09:43:25;98243.34;;;16.88;54.28
48778;BME280;34578;0.000;0.000;2023-02-04T09:48:29;98253.41;;;16.85;53.60
48778;BME280;34578;0.000;0.000;2023-02-04T09:53:30;98245.59;;;16.79;54.24
48778;BME280;34578;0.000;0.000;2023-02-04T09:58:32;98255.09;;;16.86;53.60
48778;BME280;34578;0.000;0.000;2023-02-04T10:03:33;98256.97;;;16.91;54.25
48778;BME280;34578;0.000;0.000;2023-02-04T10:08:34;98262.88;;;16.92;53.89
48778;BME280;34578;0.000;0.000;2023-02-04T10:13:41;98264.69;;;16.96;54.73
48778;BME280;34578;0.000;0.000;2023-02-04T10:18:43;98259.50;;;16.91;55.01
48778;BME280;34578;0.000;0.000;2023-02-04T10:23:49;98265.00;;;16.78;54.91
48778;BME280;34578;0.000;0.000;2023-02-04T10:29:06;98265.63;;;16.72;56.71
48778;BME280;34578;0.000;0.000;2023-02-04T10:39:18;98265.50;;;16.95;55.06
48778;BME280;34578;0.000;0.000;2023-02-04T10:44:33;98241.34;;;16.77;58.38
48778;BME280;34578;0.000;0.000;2023-02-04T10:49:35;98250.78;;;16.56;57.92
48778;BME280;34578;0.000;0.000;2023-02-04T10:54:37;98247.00;;;16.70;56.26
48778;BME280;34578;0.000;0.000;2023-02-04T10:59:38;98246.59;;;16.56;55.56
48778;BME280;34578;0.000;0.000;2023-02-04T11:04:38;98244.06;;;16.31;56.30
48778;BME280;34578;0.000;0.000;2023-02-04T11:09:42;98249.91;;;16.55;55.07
48778;BME280;34578;0.000;0.000;2023-02-04T11:14:53;98250.53;;;16.48;55.06
48778;BME280;34578;0.000;0.000;2023-02-04T11:33:23;98243.91;;;16.78;57.57
48778;BME280;34578;0.000;0.000;2023-02-04T11:38:25;98252.00;;;16.68;58.48
48778;BME280;34578;0.000;0.000;2023-02-04T11:43:26;98251.94;;;16.65;58.20
48778;BME280;34578;0.000;0.000;2023-02-04T11:48:26;98252.75;;;16.64;58.56
48778;BME280;34578;0.000;0.000;2023-02-04T11:53:29;98263.16;;;16.73;59.25
48778;BME280;34578;0.000;0.000;2023-02-04T11:58:30;98246.19;;;16.71;58.79
48778;BME280;34578;0.000;0.000;2023-02-04T12:03:31;98256.25;;;16.69;57.84
48778;BME280;34578;0.000;0.000;2023-02-04T12:08:35;98244.34;;;16.65;57.51
48778;BME280;34578;0.000;0.000;2023-02-04T12:13:49;98248.38;;;16.60;58.11
48778;BME280;34578;0.000;0.000;2023-02-04T12:18:51;98247.53;;;16.60;57.45
48778;BME280;34578;0.000;0.000;2023-02-04T12:23:51;98244.16;;;16.59;57.97
48778;BME280;34578;0.000;0.000;2023-02-04T12:28:51;98254.19;;;16.58;57.85
48778;BME280;34578;0.000;0.000;2023-02-04T12:33:52;98250.84;;;16.59;57.52
48778;BME280;34578;0.000;0.000;2023-02-04T12:38:53;98238.81;;;16.50;57.33
48778;BME280;34578;0.000;0.000;2023-02-04T12:43:53;98257.53;;;16.57;57.67
48778;BME280;34578;0.000;0.000;2023-02-04T12:48:54;98253.34;;;16.57;57.53
48778;BME280;34578;0.000;0.000;2023-02-04T12:53:55;98252.44;;;16.55;57.55
48778;BME280;34578;0.000;0.000;2023-02-04T12:58:55;98263.41;;;16.56;57.53
48778;BME280;34578;0.000;0.000;2023-02-04T13:03:56;98261.75;;;16.56;57.22
48778;BME280;34578;0.000;0.000;2023-02-04T13:08:57;98270.44;;;16.64;57.70
48778;BME280;34578;0.000;0.000;2023-02-04T13:13:57;98273.75;;;16.63;57.94
48778;BME280;34578;0.000;0.000;2023-02-04T13:18:57;98266.28;;;16.66;57.70
48778;BME280;34578;0.000;0.000;2023-02-04T13:23:58;98267.78;;;16.60;57.72
48778;BME280;34578;0.000;0.000;2023-02-04T13:28:58;98264.38;;;16.59;57.50
48778;BME280;34578;0.000;0.000;2023-02-04T13:33:59;98270.94;;;16.54;57.56
48778;BME280;34578;0.000;0.000;2023-02-04T13:38:59;98267.56;;;16.54;57.93
48778;BME280;34578;0.000;0.000;2023-02-04T13:43:59;98273.47;;;16.54;57.74
48778;BME280;34578;0.000;0.000;2023-02-04T13:49:00;98287.03;;;16.56;57.46
48778;BME280;34578;0.000;0.000;2023-02-04T13:54:00;98281.03;;;16.53;57.80
48778;BME280;34578;0.000;0.000;2023-02-04T13:59:01;98285.22;;;16.52;57.36
48778;BME280;34578;0.000;0.000;2023-02-04T14:04:01;98280.97;;;16.51;57.50
48778;BME280;34578;0.000;0.000;2023-02-04T14:09:02;98284.38;;;16.52;57.87
48778;BME280;34578;0.000;0.000;2023-02-04T14:14:03;98295.22;;;16.49;57.15
48778;BME280;34578;0.000;0.000;2023-02-04T14:19:04;98302.84;;;16.51;57.65
48778;BME280;34578;0.000;0.000;2023-02-04T14:24:04;98315.53;;;16.52;57.50
48778;BME280;34578;0.000;0.000;2023-02-04T14:29:05;98329.28;;;16.60;58.07
48778;BME280;34578;0.000;0.000;2023-02-04T14:34:06;98327.69;;;16.62;58.41
48778;BME280;34578;0.000;0.000;2023-02-04T14:39:06;98313.31;;;16.61;57.68
48778;BME280;34578;0.000;0.000;2023-02-04T14:44:07;98318.16;;;16.55;57.54
48778;BME280;34578;0.000;0.000;2023-02-04T14:49:07;98317.25;;;16.53;57.39
48778;BME280;34578;0.000;0.000;2023-02-04T14:54:07;98320.59;;;16.52;57.40
48778;BME280;34578;0.000;0.000;2023-02-04T14:59:08;98335.69;;;16.49;57.56
48778;BME280;34578;0.000;0.000;2023-02-04T15:04:08;98333.97;;;16.48;57.34
48778;BME280;34578;0.000;0.000;2023-02-04T15:09:08;98331.44;;;16.48;56.83
48778;BME280;34578;0.000;0.000;2023-02-04T15:14:09;98330.50;;;16.46;57.35
48778;BME280;34578;0.000;0.000;2023-02-04T15:19:09;98323.84;;;16.48;57.14
48778;BME280;34578;0.000;0.000;2023-02-04T15:24:10;98325.44;;;16.46;57.47
48778;BME280;34578;0.000;0.000;2023-02-04T15:29:11;98328.78;;;16.45;57.25
48778;BME280;34578;0.000;0.000;2023-02-04T15:34:13;98329.59;;;16.44;57.26
48778;BME280;34578;0.000;0.000;2023-02-04T15:39:13;98338.09;;;16.46;57.07
48778;BME280;34578;0.000;0.000;2023-02-04T15:44:14;98339.19;;;16.54;57.71
48778;BME280;34578;0.000;0.000;2023-02-04T15:49:17;98346.09;;;16.58;57.89
48778;BME280;34578;0.000;0.000;2023-02-04T15:54:18;98342.81;;;16.61;57.50
48778;BME280;34578;0.000;0.000;2023-02-04T15:59:18;98344.16;;;16.51;57.64
48778;BME280;34578;0.000;0.000;2023-02-04T16:04:19;98343.19;;;16.48;57.46
48778;BME280;34578;0.000;0.000;2023-02-04T16:09:19;98352.41;;;16.46;57.87
48778;BME280;34578;0.000;0.000;2023-02-04T16:14:19;98342.03;;;16.38;57.21
48778;BME280;34578;0.000;0.000;2023-02-04T16:19:20;98345.59;;;16.43;57.41
48778;BME280;34578;0.000;0.000;2023-02-04T16:24:20;98340.38;;;16.39;57.51
48778;BME280;34578;0.000;0.000;2023-02-04T16:29:20;98352.25;;;16.41;57.10
48778;BME280;34578;0.000;0.000;2023-02-04T16:34:21;98353.97;;;16.42;57.10
48778;BME280;34578;0.000;0.000;2023-02-04T16:39:21;98355.63;;;16.42;57.03
48778;BME280;34578;0.000;0.000;2023-02-04T16:44:21;98357.06;;;16.35;57.43
48778;BME280;34578;0.000;0.000;2023-02-04T16:49:22;98367.31;;;16.38;57.70
48778;BME280;34578;0.000;0.000;2023-02-04T16:54:23;98382.59;;;16.41;57.11
48778;BME280;34578;0.000;0.000;2023-02-04T16:59:23;98377.41;;;16.38;57.25
48778;BME280;34578;0.000;0.000;2023-02-04T17:04:23;98382.81;;;16.47;58.42
48778;BME280;34578;0.000;0.000;2023-02-04T17:09:24;98384.69;;;16.53;58.01
48778;BME280;34578;0.000;0.000;2023-02-04T17:14:24;98377.19;;;16.56;57.87
48778;BME280;34578;0.000;0.000;2023-02-04T17:19:25;98389.31;;;16.41;57.59
48778;BME280;34578;0.000;0.000;2023-02-04T17:24:25;98399.47;;;16.42;57.24
48778;BME280;34578;0.000;0.000;2023-02-04T17:29:25;98409.50;;;16.39;57.32
48778;BME280;34578;0.000;0.000;2023-02-04T17:34:26;98399.22;;;16.36;57.23
48778;BME280;34578;0.000;0.000;2023-02-04T17:39:27;98410.34;;;16.40;57.58
48778;BME280;34578;0.000;0.000;2023-02-04T17:44:28;98407.72;;;16.37;56.84
48778;BME280;34578;0.000;0.000;2023-02-04T17:49:28;98407.63;;;16.35;57.08
48778;BME280;34578;0.000;0.000;2023-02-04T17:54:29;98407.63;;;16.35;57.04
48778;BME280;34578;0.000;0.000;2023-02-04T17:59:29;98410.94;;;16.34;56.76
48778;BME280;34578;0.000;0.000;2023-02-04T18:04:30;98415.19;;;16.35;56.94
48778;BME280;34578;0.000;0.000;2023-02-04T18:09:30;98421.88;;;16.33;56.80
48778;BME280;34578;0.000;0.000;2023-02-04T18:14:30;98417.41;;;16.26;56.83
48778;BME280;34578;0.000;0.000;2023-02-04T18:19:32;98430.38;;;16.35;57.18
48778;BME280;34578;0.000;0.000;2023-02-04T18:24:37;98429.16;;;16.48;57.95
48778;BME280;34578;0.000;0.000;2023-02-04T18:29:40;98433.47;;;16.50;57.84
48778;BME280;34578;0.000;0.000;2023-02-04T18:34:44;98439.13;;;16.43;57.73
48778;BME280;34578;0.000;0.000;2023-02-04T18:39:45;98431.38;;;16.39;56.98
48778;BME280;34578;0.000;0.000;2023-02-04T18:44:45;98429.47;;;16.33;56.64
48778;BME280;34578;0.000;0.000;2023-02-04T18:49:45;98437.84;;;16.32;56.93
48778;BME280;34578;0.000;0.000;2023-02-04T18:54:50;98444.50;;;16.30;56.78
48778;BME280;34578;0.000;0.000;2023-02-04T18:59:51;98438.66;;;16.31;56.58
48778;BME280;34578;0.000;0.000;2023-02-04T19:04:52;98437.72;;;16.29;56.73
48778;BME280;34578;0.000;0.000;2023-02-04T19:09:55;98444.50;;;16.30;56.57
48778;BME280;34578;0.000;0.000;2023-02-04T19:14:55;98452.88;;;16.29;56.85
48778;BME280;34578;0.000;0.000;2023-02-04T19:20:21;98455.38;;;16.28;56.40
48778;BME280;34578;0.000;0.000;2023-02-04T19:25:31;98443.56;;;16.27;56.54
48778;BME280;34578;0.000;0.000;2023-02-04T19:30:46;98444.41;;;16.27;56.85
48778;BME280;34578;0.000;0.000;2023-02-04T19:35:48;98442.56;;;16.23;56.77
48778;BME280;34578;0.000;0.000;2023-02-04T19:40:50;98447.16;;;16.33;57.45
48778;BME280;34578;0.000;0.000;2023-02-04T19:45:52;98441.53;;;16.40;57.53
48778;BME280;34578;0.000;0.000;2023-02-04T19:50:52;98439.19;;;16.45;57.19
48778;BME280;34578;0.000;0.000;2023-02-04T19:55:54;98436.28;;;16.36;56.92
48778;BME280;34578;0.000;0.000;2023-02-04T20:01:05;98449.50;;;16.29;56.60
48778;BME280;34578;0.000;0.000;2023-02-04T20:16:39;98462.66;;;16.20;56.35
48778;BME280;34578;0.000;0.000;2023-02-04T20:21:40;98474.56;;;16.23;56.56
48778;BME280;34578;0.000;0.000;2023-02-04T20:26:40;98474.50;;;16.21;56.50
48778;BME280;34578;0.000;0.000;2023-02-04T20:31:41;98479.44;;;16.18;56.51
48778;BME280;34578;0.000;0.000;2023-02-04T20:36:41;98473.72;;;16.22;56.26
48778;BME280;34578;0.000;0.000;2023-02-04T20:41:42;98475.19;;;16.17;56.02
48778;BME280;34578;0.000;0.000;2023-02-04T20:46:43;98471.88;;;16.18;56.67
48778;BME280;34578;0.000;0.000;2023-02-04T20:51:43;98492.88;;;16.17;56.32
48778;BME280;34578;0.000;0.000;2023-02-04T20:56:44;98497.13;;;16.18;56.02
48778;BME280;34578;0.000;0.000;2023-02-04T21:01:46;98506.78;;;16.28;57.52
48778;BME280;34578;0.000;0.000;2023-02-04T21:06:57;98502.09;;;16.37;57.38
48778;BME280;34578;0.000;0.000;2023-02-04T21:12:00;98501.06;;;16.34;57.15
48778;BME280;34578;0.000;0.000;2023-02-04T21:17:01;98494.13;;;16.28;56.59
48778;BME280;34578;0.000;0.000;2023-02-04T21:22:02;98495.41;;;16.17;56.03
48778;BME280;34578;0.000;0.000;2023-02-04T21:27:03;98487.72;;;16.14;56.06
48778;BME280;34578;0.000;0.000;2023-02-04T21:32:03;98500.47;;;16.17;56.20
48778;BME280;34578;0.000;0.000;2023-02-04T21:37:03;98511.25;;;16.13;56.27
48778;BME280;34578;0.000;0.000;2023-02-04T21:42:04;98513.75;;;16.12;56.07
48778;BME280;34578;0.000;0.000;2023-02-04T21:47:09;98505.34;;;16.13;56.06
48778;BME280;34578;0.000;0.000;2023-02-04T21:52:10;98510.34;;;16.11;56.08
48778;BME280;34578;0.000;0.000;2023-02-04T21:57:10;98512.88;;;16.11;56.47
48778;BME280;34578;0.000;0.000;2023-02-04T22:02:11;98518.66;;;16.09;56.12
48778;BME280;34578;0.000;0.000;2023-02-04T22:07:11;98511.88;;;16.08;56.26
48778;BME280;34578;0.000;0.000;2023-02-04T22:12:11;98511.03;;;16.07;56.29
48778;BME280;34578;0.000;0.000;2023-02-04T22:17:12;98503.47;;;16.07;56.52
48778;BME280;34578;0.000;0.000;2023-02-04T22:22:12;98511.63;;;16.22;57.43
48778;BME280;34578;0.000;0.000;2023-02-04T22:27:12;98510.16;;;16.29;57.10
48778;BME280;34578;0.000;0.000;2023-02-04T22:32:13;98512.56;;;16.26;56.63
48778;BME280;34578;0.000;0.000;2023-02-04T22:37:13;98506.44;;;16.19;55.83
48778;BME280;34578;0.000;0.000;2023-02-04T22:42:13;98492.31;;;16.02;56.20
48778;BME280;34578;0.000;0.000;2023-02-04T22:47:14;98505.13;;;16.07;56.15
48778;BME280;34578;0.000;0.000;2023-02-04T22:52:14;98502.56;;;16.05;56.02
48778;BME280;34578;0.000;0.000;2023-02-04T22:57:15;98503.50;;;16.09;55.64
48778;BME280;34578;0.000;0.000;2023-02-04T23:02:15;98502.66;;;16.08;55.72
48778;BME280;34578;0.000;0.000;2023-02-04T23:07:15;98499.44;;;16.12;55.80
48778;BME280;34578;0.000;0.000;2023-02-04T23:12:16;98512.88;;;16.11;56.50
48778;BME280;34578;0.000;0.000;2023-02-04T23:17:16;98519.78;;;16.15;55.99
48778;BME280;34578;0.000;0.000;2023-02-04T23:22:17;98515.63;;;16.17;55.69
48778;BME280;34578;0.000;0.000;2023-02-04T23:27:17;98496.69;;;16.06;56.00
48778;BME280;34578;0.000;0.000;2023-02-04T23:32:18;98503.66;;;16.13;55.73
48778;BME280;34578;0.000;0.000;2023-02-04T23:37:18;98504.63;;;16.15;55.96
48778;BME280;34578;0.000;0.000;2023-02-04T23:42:19;98504.06;;;16.24;56.15
48778;BME280;34578;0.000;0.000;2023-02-04T23:47:19;98509.38;;;16.30;56.02
48778;BME280;34578;0.000;0.000;2023-02-04T23:52:19;98510.84;;;16.25;55.97
48778;BME280;34578;0.000;0.000;2023-02-04T23:57:20;98507.34;;;16.21;55.49
